Terminal Aerodrome Forecast
Issued by NWS Billings, MT

Home | Current Version | Previous Version | Text Only | Print | Product List | Glossary Off
Versions: 1 2 3 4 5 6 7 8 9 10 11 12 13 14 15 16 17 18 19 20 21

000
FTUS45 KBYZ 210623 AAA
TAFMLS
TAF AMD
KMLS 210623Z 2106/2206 19004KT 1/4SM FG BKN002 BKN110
     FM211400 VRB05KT P6SM SCT110
     FM211800 26004KT P6SM FEW250=

USA.gov is the U.S. government's official web portal to all federal, state and local government web resources and services.